sensor_id;sensor_type;location;lat;lon;timestamp;P1;durP1;ratioP1;P2;durP2;ratioP2
12145;SDS011;6136;47.032;15.398;2022-10-16T00:01:45;48.07;;;29.37;;
12145;SDS011;6136;47.032;15.398;2022-10-16T00:04:14;50.80;;;28.33;;
12145;SDS011;6136;47.032;15.398;2022-10-16T00:06:42;47.43;;;28.60;;
12145;SDS011;6136;47.032;15.398;2022-10-16T00:09:11;48.23;;;29.50;;
12145;SDS011;6136;47.032;15.398;2022-10-16T00:11:39;47.10;;;28.53;;
12145;SDS011;6136;47.032;15.398;2022-10-16T00:14:09;48.93;;;28.90;;
12145;SDS011;6136;47.032;15.398;2022-10-16T00:16:40;47.70;;;27.80;;
12145;SDS011;6136;47.032;15.398;2022-10-16T00:19:10;52.10;;;28.23;;
12145;SDS011;6136;47.032;15.398;2022-10-16T00:21:39;49.20;;;28.63;;
12145;SDS011;6136;47.032;15.398;2022-10-16T00:24:09;48.43;;;28.73;;
12145;SDS011;6136;47.032;15.398;2022-10-16T00:26:38;46.13;;;28.33;;
12145;SDS011;6136;47.032;15.398;2022-10-16T00:29:07;47.53;;;27.53;;
12145;SDS011;6136;47.032;15.398;2022-10-16T00:31:35;48.17;;;29.13;;
12145;SDS011;6136;47.032;15.398;2022-10-16T00:34:04;52.73;;;29.10;;
12145;SDS011;6136;47.032;15.398;2022-10-16T00:36:34;48.27;;;28.67;;
12145;SDS011;6136;47.032;15.398;2022-10-16T00:39:02;54.00;;;29.80;;
12145;SDS011;6136;47.032;15.398;2022-10-16T00:41:32;49.90;;;28.80;;
12145;SDS011;6136;47.032;15.398;2022-10-16T00:44:01;57.90;;;30.50;;
12145;SDS011;6136;47.032;15.398;2022-10-16T00:46:34;55.93;;;29.93;;
12145;SDS011;6136;47.032;15.398;2022-10-16T00:49:06;50.27;;;28.73;;
12145;SDS011;6136;47.032;15.398;2022-10-16T00:51:39;48.93;;;27.93;;
12145;SDS011;6136;47.032;15.398;2022-10-16T00:54:10;45.33;;;28.30;;
12145;SDS011;6136;47.032;15.398;2022-10-16T00:56:41;49.53;;;29.80;;
12145;SDS011;6136;47.032;15.398;2022-10-16T00:59:14;44.77;;;27.83;;
12145;SDS011;6136;47.032;15.398;2022-10-16T01:01:44;48.17;;;28.60;;
12145;SDS011;6136;47.032;15.398;2022-10-16T01:04:12;48.30;;;29.00;;
12145;SDS011;6136;47.032;15.398;2022-10-16T01:06:43;45.03;;;27.17;;
12145;SDS011;6136;47.032;15.398;2022-10-16T01:09:20;48.30;;;29.47;;
12145;SDS011;6136;47.032;15.398;2022-10-16T01:11:55;43.93;;;26.33;;
12145;SDS011;6136;47.032;15.398;2022-10-16T01:14:32;43.40;;;27.20;;
12145;SDS011;6136;47.032;15.398;2022-10-16T01:17:11;45.90;;;27.50;;
12145;SDS011;6136;47.032;15.398;2022-10-16T01:22:59;49.77;;;28.87;;
12145;SDS011;6136;47.032;15.398;2022-10-16T01:25:39;48.03;;;26.70;;
12145;SDS011;6136;47.032;15.398;2022-10-16T01:28:29;46.73;;;26.93;;
12145;SDS011;6136;47.032;15.398;2022-10-16T01:31:02;40.83;;;26.73;;
12145;SDS011;6136;47.032;15.398;2022-10-16T01:33:33;46.77;;;25.90;;
12145;SDS011;6136;47.032;15.398;2022-10-16T01:36:07;49.10;;;27.60;;
12145;SDS011;6136;47.032;15.398;2022-10-16T01:38:39;40.97;;;28.10;;
12145;SDS011;6136;47.032;15.398;2022-10-16T01:41:10;43.40;;;26.00;;
12145;SDS011;6136;47.032;15.398;2022-10-16T01:43:45;43.40;;;28.00;;
12145;SDS011;6136;47.032;15.398;2022-10-16T01:46:17;45.47;;;27.33;;
12145;SDS011;6136;47.032;15.398;2022-10-16T01:48:48;43.73;;;27.17;;
12145;SDS011;6136;47.032;15.398;2022-10-16T01:51:18;43.10;;;26.90;;
12145;SDS011;6136;47.032;15.398;2022-10-16T01:53:48;46.57;;;27.77;;
12145;SDS011;6136;47.032;15.398;2022-10-16T01:56:20;44.83;;;27.33;;
12145;SDS011;6136;47.032;15.398;2022-10-16T01:58:53;48.43;;;28.63;;
12145;SDS011;6136;47.032;15.398;2022-10-16T02:01:24;47.03;;;27.40;;
12145;SDS011;6136;47.032;15.398;2022-10-16T02:03:55;47.90;;;27.40;;
12145;SDS011;6136;47.032;15.398;2022-10-16T02:06:27;52.40;;;29.23;;
12145;SDS011;6136;47.032;15.398;2022-10-16T02:08:56;48.10;;;28.20;;
12145;SDS011;6136;47.032;15.398;2022-10-16T02:11:24;45.80;;;26.60;;
12145;SDS011;6136;47.032;15.398;2022-10-16T02:13:55;46.03;;;27.10;;
12145;SDS011;6136;47.032;15.398;2022-10-16T02:16:32;45.73;;;26.93;;
12145;SDS011;6136;47.032;15.398;2022-10-16T02:19:01;47.50;;;27.87;;
12145;SDS011;6136;47.032;15.398;2022-10-16T02:21:32;47.00;;;27.23;;
12145;SDS011;6136;47.032;15.398;2022-10-16T02:24:08;45.73;;;27.07;;
12145;SDS011;6136;47.032;15.398;2022-10-16T02:26:43;45.27;;;27.40;;
12145;SDS011;6136;47.032;15.398;2022-10-16T02:29:19;48.73;;;29.40;;
12145;SDS011;6136;47.032;15.398;2022-10-16T02:31:52;48.10;;;27.07;;
12145;SDS011;6136;47.032;15.398;2022-10-16T02:34:24;45.77;;;27.97;;
12145;SDS011;6136;47.032;15.398;2022-10-16T02:36:54;53.03;;;30.57;;
12145;SDS011;6136;47.032;15.398;2022-10-16T02:39:24;57.83;;;32.00;;
12145;SDS011;6136;47.032;15.398;2022-10-16T02:41:54;52.80;;;30.77;;
12145;SDS011;6136;47.032;15.398;2022-10-16T02:44:24;55.67;;;32.87;;
12145;SDS011;6136;47.032;15.398;2022-10-16T02:46:53;57.00;;;32.33;;
12145;SDS011;6136;47.032;15.398;2022-10-16T02:49:21;62.57;;;32.53;;
12145;SDS011;6136;47.032;15.398;2022-10-16T02:51:49;62.47;;;33.83;;
12145;SDS011;6136;47.032;15.398;2022-10-16T02:54:17;59.93;;;33.13;;
12145;SDS011;6136;47.032;15.398;2022-10-16T02:56:46;58.70;;;32.93;;
12145;SDS011;6136;47.032;15.398;2022-10-16T02:59:14;61.97;;;34.03;;
12145;SDS011;6136;47.032;15.398;2022-10-16T03:01:44;60.20;;;33.67;;
12145;SDS011;6136;47.032;15.398;2022-10-16T03:04:12;61.40;;;33.87;;
12145;SDS011;6136;47.032;15.398;2022-10-16T03:06:41;67.03;;;33.73;;
12145;SDS011;6136;47.032;15.398;2022-10-16T03:09:09;61.10;;;34.77;;
12145;SDS011;6136;47.032;15.398;2022-10-16T03:11:38;62.20;;;34.43;;
12145;SDS011;6136;47.032;15.398;2022-10-16T03:14:06;65.07;;;34.73;;
12145;SDS011;6136;47.032;15.398;2022-10-16T03:16:34;67.50;;;36.97;;
12145;SDS011;6136;47.032;15.398;2022-10-16T03:19:04;64.63;;;34.27;;
12145;SDS011;6136;47.032;15.398;2022-10-16T03:21:32;61.43;;;35.33;;
12145;SDS011;6136;47.032;15.398;2022-10-16T03:24:00;60.07;;;34.03;;
12145;SDS011;6136;47.032;15.398;2022-10-16T03:26:28;58.97;;;33.70;;
12145;SDS011;6136;47.032;15.398;2022-10-16T03:28:57;62.33;;;32.57;;
12145;SDS011;6136;47.032;15.398;2022-10-16T03:31:25;62.00;;;32.83;;
12145;SDS011;6136;47.032;15.398;2022-10-16T03:33:53;59.93;;;34.17;;
12145;SDS011;6136;47.032;15.398;2022-10-16T03:36:23;51.03;;;30.80;;
12145;SDS011;6136;47.032;15.398;2022-10-16T03:38:51;58.63;;;32.23;;
12145;SDS011;6136;47.032;15.398;2022-10-16T03:41:20;55.17;;;32.03;;
12145;SDS011;6136;47.032;15.398;2022-10-16T03:43:48;58.17;;;33.03;;
12145;SDS011;6136;47.032;15.398;2022-10-16T03:46:16;74.70;;;35.80;;
12145;SDS011;6136;47.032;15.398;2022-10-16T03:48:45;62.43;;;36.00;;
12145;SDS011;6136;47.032;15.398;2022-10-16T03:51:13;72.53;;;35.27;;
12145;SDS011;6136;47.032;15.398;2022-10-16T03:53:43;62.20;;;33.40;;
12145;SDS011;6136;47.032;15.398;2022-10-16T03:56:11;60.80;;;34.27;;
12145;SDS011;6136;47.032;15.398;2022-10-16T03:58:39;70.23;;;35.73;;
12145;SDS011;6136;47.032;15.398;2022-10-16T04:01:08;56.77;;;33.47;;
12145;SDS011;6136;47.032;15.398;2022-10-16T04:03:36;65.90;;;34.20;;
12145;SDS011;6136;47.032;15.398;2022-10-16T04:06:04;68.07;;;34.23;;
12145;SDS011;6136;47.032;15.398;2022-10-16T04:08:33;67.10;;;32.63;;
12145;SDS011;6136;47.032;15.398;2022-10-16T04:11:04;66.50;;;33.73;;
12145;SDS011;6136;47.032;15.398;2022-10-16T04:13:33;62.93;;;33.93;;
12145;SDS011;6136;47.032;15.398;2022-10-16T04:16:01;58.60;;;31.77;;
12145;SDS011;6136;47.032;15.398;2022-10-16T04:18:29;57.73;;;32.87;;
12145;SDS011;6136;47.032;15.398;2022-10-16T04:21:01;56.37;;;31.97;;
12145;SDS011;6136;47.032;15.398;2022-10-16T04:23:30;56.23;;;32.37;;
12145;SDS011;6136;47.032;15.398;2022-10-16T04:25:59;58.93;;;31.40;;
12145;SDS011;6136;47.032;15.398;2022-10-16T04:28:29;58.40;;;31.63;;
12145;SDS011;6136;47.032;15.398;2022-10-16T04:30:57;55.33;;;31.53;;
12145;SDS011;6136;47.032;15.398;2022-10-16T04:33:25;57.53;;;32.70;;
12145;SDS011;6136;47.032;15.398;2022-10-16T04:35:57;61.50;;;31.73;;
12145;SDS011;6136;47.032;15.398;2022-10-16T04:38:26;59.60;;;30.90;;
12145;SDS011;6136;47.032;15.398;2022-10-16T04:40:54;64.80;;;34.17;;
12145;SDS011;6136;47.032;15.398;2022-10-16T04:43:23;65.97;;;33.53;;
12145;SDS011;6136;47.032;15.398;2022-10-16T04:45:53;58.83;;;31.87;;
12145;SDS011;6136;47.032;15.398;2022-10-16T04:48:21;57.23;;;31.73;;
12145;SDS011;6136;47.032;15.398;2022-10-16T04:50:50;66.50;;;32.33;;
12145;SDS011;6136;47.032;15.398;2022-10-16T04:53:20;59.43;;;31.77;;
12145;SDS011;6136;47.032;15.398;2022-10-16T04:55:49;65.43;;;31.63;;
12145;SDS011;6136;47.032;15.398;2022-10-16T04:58:17;53.50;;;28.67;;
12145;SDS011;6136;47.032;15.398;2022-10-16T05:00:45;52.90;;;30.80;;
12145;SDS011;6136;47.032;15.398;2022-10-16T05:03:15;57.53;;;31.53;;
12145;SDS011;6136;47.032;15.398;2022-10-16T05:05:43;56.20;;;30.50;;
12145;SDS011;6136;47.032;15.398;2022-10-16T05:08:12;63.83;;;34.30;;
12145;SDS011;6136;47.032;15.398;2022-10-16T05:10:42;68.67;;;33.10;;
12145;SDS011;6136;47.032;15.398;2022-10-16T05:13:11;61.63;;;34.67;;
12145;SDS011;6136;47.032;15.398;2022-10-16T05:15:40;55.33;;;31.77;;
12145;SDS011;6136;47.032;15.398;2022-10-16T05:18:08;43.20;;;27.87;;
12145;SDS011;6136;47.032;15.398;2022-10-16T05:20:38;42.03;;;27.33;;
12145;SDS011;6136;47.032;15.398;2022-10-16T05:23:06;46.33;;;28.20;;
12145;SDS011;6136;47.032;15.398;2022-10-16T05:25:36;42.57;;;28.33;;
12145;SDS011;6136;47.032;15.398;2022-10-16T05:28:05;41.23;;;26.40;;
12145;SDS011;6136;47.032;15.398;2022-10-16T05:30:33;41.43;;;27.20;;
12145;SDS011;6136;47.032;15.398;2022-10-16T05:33:01;40.10;;;27.77;;
12145;SDS011;6136;47.032;15.398;2022-10-16T05:35:29;45.53;;;28.57;;
12145;SDS011;6136;47.032;15.398;2022-10-16T05:37:59;43.30;;;28.87;;
12145;SDS011;6136;47.032;15.398;2022-10-16T05:40:27;41.60;;;26.27;;
12145;SDS011;6136;47.032;15.398;2022-10-16T05:42:55;43.43;;;26.70;;
12145;SDS011;6136;47.032;15.398;2022-10-16T05:45:24;42.93;;;27.00;;
12145;SDS011;6136;47.032;15.398;2022-10-16T05:47:52;47.63;;;28.07;;
12145;SDS011;6136;47.032;15.398;2022-10-16T05:50:20;44.90;;;28.93;;
12145;SDS011;6136;47.032;15.398;2022-10-16T05:52:49;44.80;;;25.70;;
12145;SDS011;6136;47.032;15.398;2022-10-16T05:55:18;50.80;;;29.70;;
12145;SDS011;6136;47.032;15.398;2022-10-16T05:57:46;47.70;;;27.30;;
12145;SDS011;6136;47.032;15.398;2022-10-16T06:00:15;47.67;;;29.30;;
12145;SDS011;6136;47.032;15.398;2022-10-16T06:02:43;46.87;;;27.73;;
12145;SDS011;6136;47.032;15.398;2022-10-16T06:05:12;45.37;;;27.53;;
12145;SDS011;6136;47.032;15.398;2022-10-16T06:07:40;40.90;;;27.40;;
12145;SDS011;6136;47.032;15.398;2022-10-16T06:10:08;47.03;;;29.83;;
12145;SDS011;6136;47.032;15.398;2022-10-16T06:12:38;42.57;;;27.30;;
12145;SDS011;6136;47.032;15.398;2022-10-16T06:15:07;41.57;;;26.67;;
12145;SDS011;6136;47.032;15.398;2022-10-16T06:17:36;41.77;;;26.77;;
12145;SDS011;6136;47.032;15.398;2022-10-16T06:20:04;43.97;;;27.03;;
12145;SDS011;6136;47.032;15.398;2022-10-16T06:22:33;44.37;;;27.20;;
12145;SDS011;6136;47.032;15.398;2022-10-16T06:25:01;45.20;;;28.10;;
12145;SDS011;6136;47.032;15.398;2022-10-16T06:27:30;44.23;;;28.43;;
12145;SDS011;6136;47.032;15.398;2022-10-16T06:30:00;45.67;;;26.80;;
12145;SDS011;6136;47.032;15.398;2022-10-16T06:32:30;39.47;;;25.90;;
12145;SDS011;6136;47.032;15.398;2022-10-16T06:34:58;42.17;;;28.10;;
12145;SDS011;6136;47.032;15.398;2022-10-16T06:37:27;43.60;;;26.03;;
12145;SDS011;6136;47.032;15.398;2022-10-16T06:39:55;43.40;;;26.60;;
12145;SDS011;6136;47.032;15.398;2022-10-16T06:42:40;49.20;;;27.00;;
12145;SDS011;6136;47.032;15.398;2022-10-16T06:45:09;47.10;;;28.80;;
12145;SDS011;6136;47.032;15.398;2022-10-16T06:47:37;44.00;;;27.93;;
12145;SDS011;6136;47.032;15.398;2022-10-16T06:50:06;42.03;;;25.50;;
12145;SDS011;6136;47.032;15.398;2022-10-16T06:52:35;41.10;;;25.30;;
12145;SDS011;6136;47.032;15.398;2022-10-16T06:55:04;41.03;;;26.17;;
12145;SDS011;6136;47.032;15.398;2022-10-16T06:57:33;43.50;;;25.97;;
12145;SDS011;6136;47.032;15.398;2022-10-16T07:00:03;36.33;;;24.83;;
12145;SDS011;6136;47.032;15.398;2022-10-16T07:02:33;33.43;;;23.03;;
12145;SDS011;6136;47.032;15.398;2022-10-16T07:05:01;29.97;;;22.07;;
12145;SDS011;6136;47.032;15.398;2022-10-16T07:07:29;32.10;;;23.10;;
12145;SDS011;6136;47.032;15.398;2022-10-16T07:09:58;30.07;;;22.03;;
12145;SDS011;6136;47.032;15.398;2022-10-16T07:12:26;36.30;;;22.13;;
12145;SDS011;6136;47.032;15.398;2022-10-16T07:14:54;39.30;;;23.87;;
12145;SDS011;6136;47.032;15.398;2022-10-16T07:17:24;39.10;;;24.13;;
12145;SDS011;6136;47.032;15.398;2022-10-16T07:19:53;37.27;;;24.57;;
12145;SDS011;6136;47.032;15.398;2022-10-16T07:22:22;39.43;;;24.53;;
12145;SDS011;6136;47.032;15.398;2022-10-16T07:24:50;37.67;;;24.47;;
12145;SDS011;6136;47.032;15.398;2022-10-16T07:27:19;39.07;;;24.53;;
12145;SDS011;6136;47.032;15.398;2022-10-16T07:29:50;36.07;;;23.10;;
12145;SDS011;6136;47.032;15.398;2022-10-16T07:32:18;34.40;;;22.60;;
12145;SDS011;6136;47.032;15.398;2022-10-16T07:34:48;34.03;;;20.80;;
12145;SDS011;6136;47.032;15.398;2022-10-16T07:37:16;33.60;;;22.80;;
12145;SDS011;6136;47.032;15.398;2022-10-16T07:39:45;33.57;;;23.30;;
12145;SDS011;6136;47.032;15.398;2022-10-16T07:42:13;31.60;;;22.87;;
12145;SDS011;6136;47.032;15.398;2022-10-16T07:44:41;34.20;;;23.03;;
12145;SDS011;6136;47.032;15.398;2022-10-16T07:47:10;33.90;;;22.33;;
12145;SDS011;6136;47.032;15.398;2022-10-16T07:49:38;34.17;;;23.17;;
12145;SDS011;6136;47.032;15.398;2022-10-16T07:52:08;33.10;;;23.03;;
12145;SDS011;6136;47.032;15.398;2022-10-16T07:54:36;37.73;;;25.00;;
12145;SDS011;6136;47.032;15.398;2022-10-16T07:57:05;37.13;;;26.13;;
12145;SDS011;6136;47.032;15.398;2022-10-16T07:59:33;28.83;;;21.67;;
12145;SDS011;6136;47.032;15.398;2022-10-16T08:02:01;32.10;;;22.07;;
12145;SDS011;6136;47.032;15.398;2022-10-16T08:04:29;32.37;;;24.00;;
12145;SDS011;6136;47.032;15.398;2022-10-16T08:06:58;34.17;;;23.53;;
12145;SDS011;6136;47.032;15.398;2022-10-16T08:09:28;32.13;;;22.17;;
12145;SDS011;6136;47.032;15.398;2022-10-16T08:11:56;35.43;;;24.00;;
12145;SDS011;6136;47.032;15.398;2022-10-16T08:14:27;36.47;;;21.97;;
12145;SDS011;6136;47.032;15.398;2022-10-16T08:16:56;30.30;;;21.67;;
12145;SDS011;6136;47.032;15.398;2022-10-16T08:19:24;30.00;;;20.37;;
12145;SDS011;6136;47.032;15.398;2022-10-16T08:21:53;30.83;;;21.30;;
12145;SDS011;6136;47.032;15.398;2022-10-16T08:24:21;28.13;;;20.53;;
12145;SDS011;6136;47.032;15.398;2022-10-16T08:26:54;29.57;;;20.30;;
12145;SDS011;6136;47.032;15.398;2022-10-16T08:29:23;24.50;;;19.38;;
12145;SDS011;6136;47.032;15.398;2022-10-16T08:31:51;24.38;;;19.48;;
12145;SDS011;6136;47.032;15.398;2022-10-16T08:34:20;29.10;;;20.60;;
12145;SDS011;6136;47.032;15.398;2022-10-16T08:36:49;24.48;;;19.35;;
12145;SDS011;6136;47.032;15.398;2022-10-16T08:39:21;21.23;;;18.33;;
12145;SDS011;6136;47.032;15.398;2022-10-16T08:47:58;18.98;;;16.15;;
12145;SDS011;6136;47.032;15.398;2022-10-16T08:50:36;19.20;;;16.75;;
12145;SDS011;6136;47.032;15.398;2022-10-16T08:53:06;17.77;;;15.63;;
12145;SDS011;6136;47.032;15.398;2022-10-16T08:55:38;19.25;;;16.95;;
12145;SDS011;6136;47.032;15.398;2022-10-16T08:58:13;20.48;;;16.55;;
12145;SDS011;6136;47.032;15.398;2022-10-16T09:00:43;17.50;;;15.65;;
12145;SDS011;6136;47.032;15.398;2022-10-16T09:03:22;19.60;;;15.82;;
12145;SDS011;6136;47.032;15.398;2022-10-16T09:06:04;18.77;;;16.17;;
12145;SDS011;6136;47.032;15.398;2022-10-16T09:08:42;21.33;;;16.40;;
12145;SDS011;6136;47.032;15.398;2022-10-16T09:11:23;18.42;;;15.48;;
12145;SDS011;6136;47.032;15.398;2022-10-16T09:14:00;23.45;;;15.65;;
12145;SDS011;6136;47.032;15.398;2022-10-16T09:16:39;20.80;;;15.35;;
12145;SDS011;6136;47.032;15.398;2022-10-16T09:19:15;16.75;;;14.95;;
12145;SDS011;6136;47.032;15.398;2022-10-16T09:21:52;17.73;;;15.40;;
12145;SDS011;6136;47.032;15.398;2022-10-16T09:24:23;16.17;;;13.48;;
12145;SDS011;6136;47.032;15.398;2022-10-16T09:26:54;15.73;;;13.55;;
12145;SDS011;6136;47.032;15.398;2022-10-16T09:29:24;16.35;;;13.70;;
12145;SDS011;6136;47.032;15.398;2022-10-16T09:31:53;16.08;;;13.52;;
12145;SDS011;6136;47.032;15.398;2022-10-16T09:34:27;14.85;;;12.52;;
12145;SDS011;6136;47.032;15.398;2022-10-16T09:37:00;16.83;;;14.60;;
12145;SDS011;6136;47.032;15.398;2022-10-16T09:39:43;16.08;;;13.70;;
12145;SDS011;6136;47.032;15.398;2022-10-16T09:42:14;16.90;;;14.20;;
12145;SDS011;6136;47.032;15.398;2022-10-16T09:44:48;15.52;;;13.93;;
12145;SDS011;6136;47.032;15.398;2022-10-16T09:47:19;15.95;;;14.25;;
12145;SDS011;6136;47.032;15.398;2022-10-16T09:49:51;15.13;;;12.98;;
12145;SDS011;6136;47.032;15.398;2022-10-16T09:52:19;16.92;;;13.40;;
12145;SDS011;6136;47.032;15.398;2022-10-16T09:54:49;15.25;;;13.68;;
12145;SDS011;6136;47.032;15.398;2022-10-16T09:57:18;14.07;;;12.57;;
12145;SDS011;6136;47.032;15.398;2022-10-16T09:59:50;14.73;;;13.15;;
12145;SDS011;6136;47.032;15.398;2022-10-16T10:02:23;14.00;;;11.38;;
12145;SDS011;6136;47.032;15.398;2022-10-16T10:04:57;15.27;;;13.77;;
12145;SDS011;6136;47.032;15.398;2022-10-16T10:07:30;12.95;;;11.65;;
12145;SDS011;6136;47.032;15.398;2022-10-16T10:10:01;15.10;;;13.27;;
12145;SDS011;6136;47.032;15.398;2022-10-16T10:12:32;13.50;;;12.10;;
12145;SDS011;6136;47.032;15.398;2022-10-16T10:15:06;14.23;;;12.73;;
12145;SDS011;6136;47.032;15.398;2022-10-16T10:17:45;13.73;;;12.32;;
12145;SDS011;6136;47.032;15.398;2022-10-16T10:20:18;14.40;;;12.73;;
12145;SDS011;6136;47.032;15.398;2022-10-16T10:22:51;13.30;;;11.95;;
12145;SDS011;6136;47.032;15.398;2022-10-16T10:25:26;13.82;;;11.88;;
12145;SDS011;6136;47.032;15.398;2022-10-16T10:31:08;13.90;;;12.10;;
12145;SDS011;6136;47.032;15.398;2022-10-16T10:33:45;14.85;;;13.25;;
12145;SDS011;6136;47.032;15.398;2022-10-16T10:36:21;14.00;;;11.88;;
12145;SDS011;6136;47.032;15.398;2022-10-16T10:38:57;12.82;;;11.45;;
12145;SDS011;6136;47.032;15.398;2022-10-16T10:41:34;14.55;;;11.75;;
12145;SDS011;6136;47.032;15.398;2022-10-16T10:44:21;12.68;;;11.30;;
12145;SDS011;6136;47.032;15.398;2022-10-16T10:47:04;13.57;;;12.10;;
12145;SDS011;6136;47.032;15.398;2022-10-16T10:49:43;14.85;;;11.52;;
12145;SDS011;6136;47.032;15.398;2022-10-16T10:52:27;13.13;;;11.77;;
12145;SDS011;6136;47.032;15.398;2022-10-16T10:55:09;11.85;;;10.55;;
12145;SDS011;6136;47.032;15.398;2022-10-16T10:57:53;12.07;;;10.95;;
12145;SDS011;6136;47.032;15.398;2022-10-16T11:00:38;13.00;;;11.20;;
12145;SDS011;6136;47.032;15.398;2022-10-16T11:03:20;13.30;;;12.00;;
12145;SDS011;6136;47.032;15.398;2022-10-16T11:06:03;11.85;;;10.75;;
12145;SDS011;6136;47.032;15.398;2022-10-16T11:08:36;13.25;;;10.57;;
12145;SDS011;6136;47.032;15.398;2022-10-16T11:11:11;12.50;;;11.32;;
12145;SDS011;6136;47.032;15.398;2022-10-16T11:13:46;11.90;;;10.55;;
12145;SDS011;6136;47.032;15.398;2022-10-16T11:16:23;11.85;;;10.63;;
12145;SDS011;6136;47.032;15.398;2022-10-16T11:18:58;12.02;;;10.77;;
12145;SDS011;6136;47.032;15.398;2022-10-16T11:21:33;12.40;;;11.05;;
12145;SDS011;6136;47.032;15.398;2022-10-16T11:24:13;12.20;;;11.00;;
12145;SDS011;6136;47.032;15.398;2022-10-16T11:26:47;12.43;;;11.13;;
12145;SDS011;6136;47.032;15.398;2022-10-16T11:29:22;12.88;;;10.98;;
12145;SDS011;6136;47.032;15.398;2022-10-16T11:31:57;12.98;;;10.95;;
12145;SDS011;6136;47.032;15.398;2022-10-16T11:34:31;11.73;;;10.60;;
12145;SDS011;6136;47.032;15.398;2022-10-16T11:37:07;11.63;;;10.50;;
12145;SDS011;6136;47.032;15.398;2022-10-16T11:39:40;11.55;;;10.35;;
12145;SDS011;6136;47.032;15.398;2022-10-16T11:42:10;14.68;;;11.20;;
12145;SDS011;6136;47.032;15.398;2022-10-16T11:44:45;12.02;;;10.82;;
12145;SDS011;6136;47.032;15.398;2022-10-16T11:47:24;11.57;;;10.38;;
12145;SDS011;6136;47.032;15.398;2022-10-16T11:50:23;11.82;;;10.73;;
12145;SDS011;6136;47.032;15.398;2022-10-16T11:52:55;12.20;;;11.00;;
12145;SDS011;6136;47.032;15.398;2022-10-16T11:55:34;12.52;;;11.35;;
12145;SDS011;6136;47.032;15.398;2022-10-16T11:58:12;11.85;;;10.63;;
12145;SDS011;6136;47.032;15.398;2022-10-16T12:00:47;11.50;;;10.38;;
12145;SDS011;6136;47.032;15.398;2022-10-16T12:03:26;12.63;;;11.32;;
12145;SDS011;6136;47.032;15.398;2022-10-16T12:06:22;11.48;;;10.35;;
12145;SDS011;6136;47.032;15.398;2022-10-16T12:08:58;12.98;;;11.10;;
12145;SDS011;6136;47.032;15.398;2022-10-16T12:11:32;11.18;;;10.02;;
12145;SDS011;6136;47.032;15.398;2022-10-16T12:14:04;12.60;;;11.18;;
12145;SDS011;6136;47.032;15.398;2022-10-16T12:16:36;10.68;;;9.57;;
12145;SDS011;6136;47.032;15.398;2022-10-16T12:19:12;10.55;;;9.48;;
12145;SDS011;6136;47.032;15.398;2022-10-16T12:21:55;10.45;;;9.48;;
12145;SDS011;6136;47.032;15.398;2022-10-16T12:24:30;12.63;;;11.25;;
12145;SDS011;6136;47.032;15.398;2022-10-16T12:27:01;12.05;;;10.40;;
12145;SDS011;6136;47.032;15.398;2022-10-16T12:29:33;12.43;;;9.85;;
12145;SDS011;6136;47.032;15.398;2022-10-16T12:32:05;10.00;;;8.95;;
12145;SDS011;6136;47.032;15.398;2022-10-16T12:35:16;10.15;;;9.05;;
12145;SDS011;6136;47.032;15.398;2022-10-16T12:37:49;11.10;;;9.88;;
12145;SDS011;6136;47.032;15.398;2022-10-16T12:40:27;11.07;;;9.98;;
12145;SDS011;6136;47.032;15.398;2022-10-16T12:42:58;10.60;;;9.57;;
12145;SDS011;6136;47.032;15.398;2022-10-16T12:45:28;11.02;;;9.73;;
12145;SDS011;6136;47.032;15.398;2022-10-16T12:47:59;10.20;;;9.10;;
12145;SDS011;6136;47.032;15.398;2022-10-16T12:50:30;10.43;;;9.35;;
12145;SDS011;6136;47.032;15.398;2022-10-16T12:53:03;10.60;;;9.55;;
12145;SDS011;6136;47.032;15.398;2022-10-16T12:55:47;10.75;;;9.63;;
12145;SDS011;6136;47.032;15.398;2022-10-16T12:58:32;12.35;;;10.02;;
12145;SDS011;6136;47.032;15.398;2022-10-16T13:01:25;10.85;;;9.80;;
12145;SDS011;6136;47.032;15.398;2022-10-16T13:04:10;11.35;;;10.10;;
12145;SDS011;6136;47.032;15.398;2022-10-16T13:06:51;10.85;;;9.75;;
12145;SDS011;6136;47.032;15.398;2022-10-16T13:09:31;12.52;;;11.07;;
12145;SDS011;6136;47.032;15.398;2022-10-16T13:12:16;10.50;;;9.50;;
12145;SDS011;6136;47.032;15.398;2022-10-16T13:15:04;12.07;;;10.85;;
12145;SDS011;6136;47.032;15.398;2022-10-16T13:17:46;11.45;;;10.23;;
12145;SDS011;6136;47.032;15.398;2022-10-16T13:20:24;12.45;;;10.50;;
12145;SDS011;6136;47.032;15.398;2022-10-16T13:23:01;10.85;;;9.85;;
12145;SDS011;6136;47.032;15.398;2022-10-16T13:25:42;13.68;;;10.77;;
12145;SDS011;6136;47.032;15.398;2022-10-16T13:28:27;12.05;;;10.60;;
12145;SDS011;6136;47.032;15.398;2022-10-16T13:30:59;11.07;;;9.93;;
12145;SDS011;6136;47.032;15.398;2022-10-16T13:33:30;11.10;;;10.05;;
12145;SDS011;6136;47.032;15.398;2022-10-16T13:36:01;10.82;;;9.73;;
12145;SDS011;6136;47.032;15.398;2022-10-16T13:38:31;11.75;;;10.23;;
12145;SDS011;6136;47.032;15.398;2022-10-16T13:41:02;11.20;;;10.10;;
12145;SDS011;6136;47.032;15.398;2022-10-16T13:43:34;11.00;;;9.95;;
12145;SDS011;6136;47.032;15.398;2022-10-16T13:46:05;13.85;;;12.18;;
12145;SDS011;6136;47.032;15.398;2022-10-16T13:48:35;12.00;;;9.77;;
12145;SDS011;6136;47.032;15.398;2022-10-16T13:51:04;13.05;;;10.38;;
12145;SDS011;6136;47.032;15.398;2022-10-16T13:53:39;12.05;;;9.63;;
12145;SDS011;6136;47.032;15.398;2022-10-16T13:56:11;11.98;;;10.15;;
12145;SDS011;6136;47.032;15.398;2022-10-16T13:58:41;11.80;;;9.18;;
12145;SDS011;6136;47.032;15.398;2022-10-16T14:01:15;11.02;;;9.88;;
12145;SDS011;6136;47.032;15.398;2022-10-16T14:03:45;11.27;;;10.05;;
12145;SDS011;6136;47.032;15.398;2022-10-16T14:06:15;11.32;;;10.00;;
12145;SDS011;6136;47.032;15.398;2022-10-16T14:08:49;12.48;;;9.70;;
12145;SDS011;6136;47.032;15.398;2022-10-16T14:11:23;10.35;;;8.98;;
12145;SDS011;6136;47.032;15.398;2022-10-16T14:13:52;10.80;;;9.48;;
12145;SDS011;6136;47.032;15.398;2022-10-16T14:16:22;11.85;;;10.48;;
12145;SDS011;6136;47.032;15.398;2022-10-16T14:18:55;11.98;;;9.48;;
12145;SDS011;6136;47.032;15.398;2022-10-16T14:21:25;12.95;;;11.02;;
12145;SDS011;6136;47.032;15.398;2022-10-16T14:23:55;12.50;;;10.05;;
12145;SDS011;6136;47.032;15.398;2022-10-16T14:26:25;10.80;;;9.00;;
12145;SDS011;6136;47.032;15.398;2022-10-16T14:29:03;10.77;;;9.57;;
12145;SDS011;6136;47.032;15.398;2022-10-16T14:31:39;14.13;;;9.82;;
12145;SDS011;6136;47.032;15.398;2022-10-16T14:34:22;16.10;;;10.38;;
12145;SDS011;6136;47.032;15.398;2022-10-16T14:36:54;11.50;;;10.02;;
12145;SDS011;6136;47.032;15.398;2022-10-16T14:39:23;14.32;;;9.00;;
12145;SDS011;6136;47.032;15.398;2022-10-16T14:41:56;12.93;;;9.77;;
12145;SDS011;6136;47.032;15.398;2022-10-16T14:44:31;11.40;;;9.32;;
12145;SDS011;6136;47.032;15.398;2022-10-16T14:47:07;13.30;;;10.95;;
12145;SDS011;6136;47.032;15.398;2022-10-16T14:49:41;14.05;;;11.15;;
12145;SDS011;6136;47.032;15.398;2022-10-16T14:52:10;15.45;;;12.63;;
12145;SDS011;6136;47.032;15.398;2022-10-16T14:54:39;17.98;;;13.85;;
12145;SDS011;6136;47.032;15.398;2022-10-16T14:57:16;15.40;;;12.38;;
12145;SDS011;6136;47.032;15.398;2022-10-16T14:59:47;17.73;;;13.77;;
12145;SDS011;6136;47.032;15.398;2022-10-16T15:02:19;19.42;;;14.57;;
12145;SDS011;6136;47.032;15.398;2022-10-16T15:04:53;17.17;;;14.02;;